createdAt,value
2023-03-29T00:00:42.327Z,51.38
2023-03-29T00:05:44.880Z,52.83
2023-03-29T00:10:49.521Z,52.59
2023-03-29T00:15:51.187Z,52.39
2023-03-29T00:40:11.762Z,53.32
2023-03-29T00:45:13.336Z,53.22
2023-03-29T00:50:33.192Z,52.72
2023-03-29T00:55:39.296Z,54.11
2023-03-29T01:00:48.742Z,53.31
2023-03-29T01:05:57.811Z,52.92
2023-03-29T01:11:18.077Z,53.80
2023-03-29T01:16:22.120Z,53.65
2023-03-29T01:21:44.423Z,54.22
2023-03-29T01:27:09.569Z,54.24
2023-03-29T01:32:23.419Z,54.74
2023-03-29T01:37:37.655Z,53.65
2023-03-29T01:43:04.569Z,53.19
2023-03-29T01:48:19.366Z,53.00
2023-03-29T01:53:42.277Z,53.23
2023-03-29T01:58:53.170Z,54.08
2023-03-29T02:04:02.853Z,52.81
2023-03-29T02:09:05.064Z,53.04
2023-03-29T02:14:07.527Z,53.83
2023-03-29T02:19:10.060Z,53.48
2023-03-29T02:24:15.365Z,54.70
2023-03-29T02:29:17.186Z,54.39
2023-03-29T02:34:19.271Z,54.32
2023-03-29T02:39:22.975Z,54.90
2023-03-29T02:44:28.522Z,55.14
2023-03-29T02:49:30.441Z,55.40
2023-03-29T02:54:32.977Z,55.62
2023-03-29T02:59:35.025Z,55.34
2023-03-29T03:04:36.633Z,54.96
2023-03-29T03:09:38.267Z,55.06
2023-03-29T03:14:40.534Z,55.12
2023-03-29T03:19:45.017Z,54.32
2023-03-29T03:24:46.630Z,53.91
2023-03-29T03:29:48.708Z,53.99
2023-03-29T03:34:50.633Z,53.82
2023-03-29T03:39:52.218Z,54.00
2023-03-29T03:44:54.222Z,55.01
2023-03-29T03:49:55.847Z,54.75
2023-03-29T03:54:57.454Z,54.54
2023-03-29T03:59:59.108Z,54.90
2023-03-29T04:05:03.414Z,54.74
2023-03-29T04:10:06.317Z,54.33
2023-03-29T04:15:09.733Z,55.33
2023-03-29T04:20:12.418Z,55.72
2023-03-29T04:25:14.324Z,55.54
2023-03-29T04:30:17.027Z,56.43
2023-03-29T04:35:18.660Z,58.87
2023-03-29T04:40:21.000Z,57.27
2023-03-29T04:45:22.845Z,56.81
2023-03-29T04:50:24.633Z,56.58
2023-03-29T04:55:26.590Z,57.27
2023-03-29T05:00:28.717Z,56.24
2023-03-29T05:11:55.801Z,56.17
2023-03-29T05:16:57.488Z,55.91
2023-03-29T05:21:59.184Z,56.12
2023-03-29T05:27:01.306Z,55.43
2023-03-29T05:32:03.035Z,55.36
2023-03-29T05:37:04.771Z,54.65
2023-03-29T05:42:06.559Z,54.56
2023-03-29T05:47:08.157Z,54.90
2023-03-29T06:05:37.012Z,54.80
2023-03-29T06:10:38.938Z,54.92
2023-03-29T06:15:40.575Z,55.57
2023-03-29T06:20:42.692Z,55.69
2023-03-29T06:25:45.697Z,56.26
2023-03-29T06:30:48.336Z,53.03
2023-03-29T06:35:50.275Z,54.78
2023-03-29T06:40:52.806Z,55.44
2023-03-29T06:45:55.047Z,55.40
2023-03-29T06:50:56.991Z,55.17
2023-03-29T06:55:59.671Z,54.67
2023-03-29T07:01:05.192Z,54.00
2023-03-29T07:06:10.271Z,54.07
2023-03-29T07:11:14.239Z,53.71
2023-03-29T07:16:16.361Z,53.69
2023-03-29T07:21:18.022Z,53.32
2023-03-29T07:26:29.778Z,52.89
2023-03-29T07:31:35.917Z,52.12
2023-03-29T07:36:38.678Z,50.38
2023-03-29T07:41:40.710Z,51.03
2023-03-29T07:46:43.403Z,51.39
2023-03-29T07:51:45.064Z,51.53
2023-03-29T07:56:48.049Z,52.33
2023-03-29T08:01:50.554Z,52.64
2023-03-29T08:06:53.131Z,53.16
2023-03-29T08:11:54.967Z,53.20
2023-03-29T08:16:56.820Z,53.14
2023-03-29T08:21:58.983Z,53.69
2023-03-29T08:27:00.833Z,53.69
2023-03-29T08:32:03.086Z,53.21
2023-03-29T08:37:05.138Z,53.49
2023-03-29T08:42:31.378Z,53.55
2023-03-29T08:47:39.844Z,53.97
2023-03-29T08:52:47.119Z,51.85
2023-03-29T08:57:51.732Z,49.72
2023-03-29T09:02:54.493Z,48.25
2023-03-29T09:07:57.019Z,47.99
2023-03-29T09:13:34.892Z,47.20
2023-03-29T09:19:06.466Z,48.30
2023-03-29T09:24:29.689Z,49.06
2023-03-29T09:29:31.351Z,49.50
2023-03-29T09:34:49.362Z,52.63
2023-03-29T09:39:53.319Z,51.70
2023-03-29T09:45:02.055Z,53.43
2023-03-29T09:50:27.673Z,53.80
2023-03-29T09:55:35.282Z,48.65
2023-03-29T10:00:37.325Z,48.29
2023-03-29T10:05:39.271Z,48.72
2023-03-29T10:10:41.592Z,50.20
2023-03-29T10:15:43.494Z,47.27
2023-03-29T10:20:45.480Z,48.49
2023-03-29T10:25:47.522Z,47.17
2023-03-29T10:31:00.195Z,46.17
2023-03-29T10:36:07.002Z,46.72
2023-03-29T10:41:12.989Z,46.70
2023-03-29T10:46:44.227Z,47.56
2023-03-29T10:51:47.275Z,49.46
2023-03-29T10:56:58.928Z,47.60
2023-03-29T11:02:17.168Z,45.63
2023-03-29T11:07:19.939Z,45.83
2023-03-29T11:12:52.277Z,46.41
2023-03-29T11:18:06.030Z,48.40
2023-03-29T11:23:27.560Z,48.31
2023-03-29T11:28:47.981Z,48.25
2023-03-29T11:34:11.814Z,49.47
2023-03-29T11:39:38.861Z,46.18
2023-03-29T11:44:41.859Z,43.41
2023-03-29T11:50:03.344Z,45.29
2023-03-29T11:55:13.852Z,42.75
2023-03-29T12:00:22.248Z,44.78
2023-03-29T12:05:37.414Z,42.95
2023-03-29T12:11:10.068Z,43.17
2023-03-29T12:16:34.634Z,43.46
2023-03-29T12:21:36.860Z,42.88
2023-03-29T12:26:44.858Z,40.83
2023-03-29T12:32:01.708Z,42.64
2023-03-29T12:37:27.937Z,43.08
2023-03-29T12:42:29.898Z,42.86
2023-03-29T12:47:43.793Z,43.14
2023-03-29T12:52:45.535Z,42.07
2023-03-29T12:58:06.684Z,41.68
2023-03-29T13:03:27.666Z,40.86
2023-03-29T13:08:44.506Z,39.67
2023-03-29T13:13:50.725Z,39.68
2023-03-29T13:19:14.663Z,40.38
2023-03-29T13:24:41.382Z,39.58
2023-03-29T13:30:11.928Z,39.55
2023-03-29T13:35:31.408Z,40.71
2023-03-29T13:40:47.024Z,40.56
2023-03-29T13:46:05.280Z,40.28
2023-03-29T13:51:19.068Z,41.74
2023-03-29T13:56:30.084Z,42.76
2023-03-29T14:01:53.557Z,43.02
2023-03-29T14:06:56.921Z,43.31
2023-03-29T14:12:00.370Z,44.13
2023-03-29T14:17:02.284Z,44.31
2023-03-29T14:22:12.528Z,43.46
2023-03-29T14:27:14.398Z,44.95
2023-03-29T14:32:18.645Z,44.04
2023-03-29T14:37:29.036Z,44.73
2023-03-29T14:42:30.752Z,42.83
2023-03-29T14:47:33.530Z,43.93
2023-03-29T14:52:35.488Z,43.10
2023-03-29T14:57:38.100Z,41.87
2023-03-29T15:02:50.000Z,42.64
2023-03-29T15:07:56.091Z,43.00
2023-03-29T15:12:58.246Z,42.16
2023-03-29T15:18:00.900Z,42.85
2023-03-29T15:23:08.631Z,41.92
2023-03-29T15:28:32.838Z,41.69
2023-03-29T15:33:40.450Z,41.23
2023-03-29T15:38:45.211Z,41.48
2023-03-29T15:43:47.172Z,41.22
2023-03-29T15:48:48.808Z,42.47
2023-03-29T15:53:50.449Z,42.50
2023-03-29T15:58:52.362Z,42.67
2023-03-29T16:03:54.036Z,45.15
2023-03-29T16:08:57.226Z,45.47
2023-03-29T16:13:59.427Z,46.72
2023-03-29T16:19:01.102Z,47.14
2023-03-29T16:24:04.066Z,47.16
2023-03-29T16:29:05.768Z,47.22
2023-03-29T16:34:09.456Z,47.22
2023-03-29T16:39:13.141Z,47.74
2023-03-29T16:44:18.101Z,48.14
2023-03-29T16:49:20.791Z,48.07
2023-03-29T16:54:25.940Z,47.90
2023-03-29T16:59:27.809Z,49.05
2023-03-29T17:04:29.820Z,49.07
2023-03-29T17:09:32.271Z,49.22
2023-03-29T17:14:33.906Z,49.79
2023-03-29T17:19:36.172Z,50.49
2023-03-29T17:24:38.026Z,50.46
2023-03-29T17:29:39.903Z,50.68
2023-03-29T17:34:41.793Z,50.89
2023-03-29T17:39:43.880Z,50.92
2023-03-29T17:44:48.745Z,51.61
2023-03-29T17:49:52.218Z,51.61
2023-03-29T17:54:54.587Z,52.29
2023-03-29T17:59:56.922Z,52.05
2023-03-29T18:05:02.013Z,52.24
2023-03-29T18:10:05.264Z,52.39
2023-03-29T18:15:08.617Z,52.91
2023-03-29T18:20:11.928Z,53.30
2023-03-29T18:25:18.229Z,54.43
2023-03-29T18:30:20.990Z,54.34
2023-03-29T18:35:25.662Z,55.51
2023-03-29T18:40:28.454Z,56.44
2023-03-29T18:45:31.070Z,56.92
2023-03-29T18:50:33.336Z,58.27
2023-03-29T18:55:35.981Z,57.81
2023-03-29T19:00:39.402Z,58.46
2023-03-29T19:05:41.631Z,58.55
2023-03-29T19:10:44.263Z,58.96
2023-03-29T19:15:48.212Z,59.65
2023-03-29T19:20:56.988Z,59.37
2023-03-29T19:26:03.416Z,60.07
2023-03-29T19:31:06.462Z,60.42
2023-03-29T19:36:09.110Z,60.24
2023-03-29T19:41:12.922Z,60.58
2023-03-29T19:46:16.454Z,61.05
2023-03-29T19:51:18.801Z,60.44
2023-03-29T19:56:23.644Z,59.83
2023-03-29T20:01:27.526Z,60.16
2023-03-29T20:06:29.446Z,59.67
2023-03-29T20:11:31.563Z,59.69
2023-03-29T20:16:34.949Z,59.94
2023-03-29T20:21:40.102Z,60.50
2023-03-29T20:26:42.276Z,59.88
2023-03-29T20:31:45.549Z,59.69
2023-03-29T20:36:47.355Z,60.04
2023-03-29T20:41:50.767Z,61.71
2023-03-29T20:47:06.819Z,61.90
2023-03-29T20:52:17.543Z,61.84
2023-03-29T20:57:21.117Z,62.19
2023-03-29T21:02:23.955Z,62.28
2023-03-29T21:07:26.635Z,62.75
2023-03-29T21:12:28.480Z,62.35
2023-03-29T21:17:30.414Z,62.30
2023-03-29T21:22:34.825Z,62.92
2023-03-29T21:27:37.221Z,62.86
2023-03-29T21:32:39.059Z,62.69
2023-03-29T21:37:40.865Z,62.96
2023-03-29T21:42:42.492Z,63.34
2023-03-29T21:47:44.196Z,63.33
2023-03-29T21:52:45.981Z,63.66
2023-03-29T21:57:50.414Z,63.54
2023-03-29T22:02:52.297Z,63.54
2023-03-29T22:07:54.061Z,63.82
2023-03-29T22:12:57.293Z,63.60
2023-03-29T22:18:00.365Z,64.26
2023-03-29T22:23:03.282Z,63.82
2023-03-29T22:28:05.055Z,64.35
2023-03-29T22:33:06.981Z,64.08
2023-03-29T22:38:08.737Z,64.74
2023-03-29T22:43:10.375Z,64.65
2023-03-29T22:48:12.218Z,65.01
2023-03-29T22:53:14.263Z,64.73
2023-03-29T22:58:16.280Z,64.15
2023-03-29T23:03:18.331Z,64.47
2023-03-29T23:08:20.130Z,64.44
2023-03-29T23:13:26.036Z,65.26
2023-03-29T23:18:29.601Z,65.39
2023-03-29T23:23:31.776Z,65.49
2023-03-29T23:28:34.686Z,65.97
2023-03-29T23:33:38.742Z,64.76
2023-03-29T23:38:42.325Z,65.76
2023-03-29T23:43:47.069Z,65.43
2023-03-29T23:48:50.274Z,65.96
2023-03-29T23:53:52.120Z,65.98
2023-03-29T23:58:54.347Z,66.30
